createdAt,value
2022-09-22T00:02:21.782Z,100350.34
2022-09-22T00:05:29.132Z,100354.06
2022-09-22T00:08:35.262Z,100350.92
2022-09-22T00:11:50.932Z,100347.48
2022-09-22T00:14:56.293Z,100348.84
2022-09-22T00:18:02.931Z,100352.23
2022-09-22T00:21:13.451Z,100361.44
2022-09-22T00:24:20.268Z,100364.50
2022-09-22T00:27:26.075Z,100370.11
2022-09-22T00:30:33.082Z,100376.59
2022-09-22T00:33:38.851Z,100386.30
2022-09-22T00:36:44.030Z,100382.42
2022-09-22T00:39:51.810Z,100383.96
2022-09-22T00:42:58.927Z,100385.33
2022-09-22T00:46:08.434Z,100382.94
2022-09-22T00:49:18.635Z,100386.69
2022-09-22T00:52:26.583Z,100391.48
2022-09-22T00:56:01.285Z,100395.58
2022-09-22T00:59:11.433Z,100391.70
2022-09-22T01:02:17.753Z,100394.97
2022-09-22T01:05:23.548Z,100395.67
2022-09-22T01:08:31.616Z,100397.37
2022-09-22T01:11:37.154Z,100390.22
2022-09-22T01:14:58.378Z,100389.52
2022-09-22T01:18:35.241Z,100396.86
2022-09-22T01:22:07.337Z,100391.74
2022-09-22T01:25:55.068Z,100386.46
2022-09-22T01:29:42.826Z,100390.39
2022-09-22T01:33:00.239Z,100392.45
2022-09-22T01:36:18.337Z,100393.48
2022-09-22T01:39:41.645Z,100395.89
2022-09-22T01:43:12.160Z,100388.91
2022-09-22T01:46:22.505Z,100390.28
2022-09-22T01:49:29.259Z,100389.78
2022-09-22T01:52:40.155Z,100382.30
2022-09-22T01:55:54.487Z,100383.16
2022-09-22T01:59:08.345Z,100379.91
2022-09-22T02:02:20.107Z,100382.13
2022-09-22T02:05:38.558Z,100383.83
2022-09-22T02:09:01.132Z,100381.10
2022-09-22T02:12:08.384Z,100392.72
2022-09-22T02:15:15.824Z,100392.02
2022-09-22T02:18:31.313Z,100394.08
2022-09-22T02:21:36.575Z,100394.41
2022-09-22T02:24:49.897Z,100396.31
2022-09-22T02:27:55.427Z,100400.23
2022-09-22T02:31:20.394Z,100401.94
2022-09-22T02:34:09.476Z,100393.59
2022-09-22T02:37:27.507Z,100393.09
2022-09-22T02:40:59.801Z,100399.58
2022-09-22T02:44:13.242Z,100398.55
2022-09-22T02:47:36.399Z,100393.59
2022-09-22T02:50:42.140Z,100391.39
2022-09-22T02:53:49.500Z,100390.69
2022-09-22T02:56:57.400Z,100398.01
2022-09-22T03:00:03.146Z,100393.37
2022-09-22T03:03:09.017Z,100401.23
2022-09-22T03:06:15.322Z,100408.21
2022-09-22T03:09:23.520Z,100405.64
2022-09-22T03:12:28.953Z,100402.92
2022-09-22T03:15:34.186Z,100400.35
2022-09-22T03:18:40.582Z,100395.40
2022-09-22T03:21:49.261Z,100404.95
2022-09-22T03:24:55.533Z,100410.73
2022-09-22T03:28:01.976Z,100411.27
2022-09-22T03:31:07.300Z,100413.33
2022-09-22T03:34:14.959Z,100420.98
2022-09-22T03:37:19.935Z,100423.38
2022-09-22T03:40:25.531Z,100426.32
2022-09-22T03:43:31.513Z,100428.88
2022-09-22T03:46:38.001Z,100422.89
2022-09-22T03:49:43.562Z,100427.86
2022-09-22T03:52:52.371Z,100425.33
2022-09-22T03:55:57.702Z,100437.45
2022-09-22T03:59:03.650Z,100433.36
2022-09-22T04:02:11.239Z,100430.67
2022-09-22T04:05:17.061Z,100440.23
2022-09-22T04:08:23.171Z,100445.40
2022-09-22T04:11:31.443Z,100438.58
2022-09-22T04:14:37.248Z,100441.35
2022-09-22T04:17:43.968Z,100437.13
2022-09-22T04:20:52.486Z,100430.48
2022-09-22T04:23:58.447Z,100436.67
2022-09-22T04:27:21.259Z,100429.84
2022-09-22T04:30:12.341Z,100426.61
2022-09-22T04:33:18.444Z,100431.94
2022-09-22T04:36:24.270Z,100430.23
2022-09-22T04:39:29.721Z,100420.03
2022-09-22T04:42:36.262Z,100423.80
2022-09-22T04:45:42.588Z,100416.96
2022-09-22T04:48:50.318Z,100415.45
2022-09-22T04:51:57.674Z,100410.84
2022-09-22T04:55:04.826Z,100415.45
2022-09-22T04:58:16.134Z,100419.21
2022-09-22T05:01:24.058Z,100424.50
2022-09-22T05:04:31.135Z,100422.80
2022-09-22T05:07:39.204Z,100427.59
2022-09-22T05:10:46.119Z,100438.84
2022-09-22T05:13:53.671Z,100433.91
2022-09-22T05:17:02.310Z,100440.94
2022-09-22T05:20:12.353Z,100447.09
2022-09-22T05:23:17.986Z,100457.00
2022-09-22T05:26:23.508Z,100453.44
2022-09-22T05:29:29.788Z,100443.02
2022-09-22T05:32:40.401Z,100450.57
2022-09-22T05:35:45.124Z,100452.77
2022-09-22T05:38:54.371Z,100454.64
2022-09-22T05:42:02.359Z,100450.86
2022-09-22T05:45:07.787Z,100464.53
2022-09-22T05:48:14.361Z,100463.83
2022-09-22T05:51:20.729Z,100469.28
2022-09-22T05:54:27.650Z,100460.91
2022-09-22T05:57:34.834Z,100464.48
2022-09-22T06:00:40.382Z,100464.78
2022-09-22T06:03:46.869Z,100469.02
2022-09-22T06:06:52.809Z,100470.21
2022-09-22T06:10:01.918Z,100462.83
2022-09-22T06:13:16.994Z,100466.03
2022-09-22T06:16:22.052Z,100465.50
2022-09-22T06:19:28.209Z,100459.98
2022-09-22T06:22:38.632Z,100456.33
2022-09-22T06:25:45.271Z,100458.34
2022-09-22T06:29:04.603Z,100448.87
2022-09-22T06:32:11.072Z,100448.90
2022-09-22T06:35:18.383Z,100459.12
2022-09-22T06:38:24.807Z,100453.34
2022-09-22T06:41:32.784Z,100455.88
2022-09-22T06:44:39.646Z,100463.20
2022-09-22T06:47:46.181Z,100469.16
2022-09-22T06:50:53.805Z,100473.30
2022-09-22T06:53:58.491Z,100475.30
2022-09-22T06:57:07.250Z,100475.33
2022-09-22T07:00:14.745Z,100481.23
2022-09-22T07:03:36.132Z,100485.08
2022-09-22T07:06:44.335Z,100484.46
2022-09-22T07:09:49.494Z,100485.03
2022-09-22T07:12:59.833Z,100493.61
2022-09-22T07:16:31.623Z,100505.34
2022-09-22T07:19:39.697Z,100505.02
2022-09-22T07:22:50.436Z,100505.42
2022-09-22T07:26:10.004Z,100505.42
2022-09-22T07:29:22.759Z,100501.69
2022-09-22T07:32:30.236Z,100494.68
2022-09-22T07:35:51.850Z,100487.70
2022-09-22T07:39:47.544Z,100479.97
2022-09-22T07:43:05.054Z,100478.97
2022-09-22T07:46:14.000Z,100482.25
2022-09-22T07:49:26.272Z,100487.47
2022-09-22T07:52:33.111Z,100473.30
2022-09-22T07:55:45.851Z,100473.31
2022-09-22T07:58:55.227Z,100466.97
2022-09-22T08:02:02.601Z,100474.32
2022-09-22T08:05:10.368Z,100470.99
2022-09-22T08:08:15.984Z,100470.17
2022-09-22T08:11:25.258Z,100454.37
2022-09-22T08:14:32.276Z,100462.75
2022-09-22T08:17:38.194Z,100462.17
2022-09-22T08:20:44.995Z,100462.23
2022-09-22T08:23:51.943Z,100463.93
2022-09-22T08:27:03.266Z,100458.61
2022-09-22T08:30:09.171Z,100461.41
2022-09-22T08:33:14.779Z,100455.09
2022-09-22T08:36:20.563Z,100461.57
2022-09-22T08:39:27.836Z,100460.50
2022-09-22T08:42:35.291Z,100461.47
2022-09-22T08:45:53.269Z,100456.29
2022-09-22T08:49:19.203Z,100450.94
2022-09-22T08:52:56.061Z,100443.50
2022-09-22T08:56:17.856Z,100438.60
2022-09-22T08:59:41.859Z,100452.58
2022-09-22T09:03:14.289Z,100448.96
2022-09-22T09:06:24.807Z,100450.65
2022-09-22T09:09:57.057Z,100446.55
2022-09-22T09:13:29.540Z,100437.36
2022-09-22T09:17:08.482Z,100433.67
2022-09-22T09:20:24.981Z,100439.88
2022-09-22T09:26:48.922Z,100439.52
2022-09-22T09:30:03.958Z,100436.67
2022-09-22T09:33:15.366Z,100434.63
2022-09-22T09:36:29.414Z,100422.89
2022-09-22T09:39:49.525Z,100431.99
2022-09-22T09:42:56.535Z,100428.02
2022-09-22T09:46:15.645Z,100432.38
2022-09-22T09:49:31.083Z,100423.63
2022-09-22T09:52:36.593Z,100427.16
2022-09-22T09:55:45.846Z,100424.69
2022-09-22T09:59:24.895Z,100427.80
2022-09-22T10:02:35.104Z,100429.33
2022-09-22T10:05:39.662Z,100433.98
2022-09-22T10:08:59.915Z,100435.97
2022-09-22T10:12:18.290Z,100433.98
2022-09-22T10:15:35.156Z,100435.16
2022-09-22T10:18:47.077Z,100434.66
2022-09-22T10:21:53.212Z,100421.36
2022-09-22T10:25:09.451Z,100425.31
2022-09-22T10:28:33.294Z,100427.03
2022-09-22T10:31:44.694Z,100433.17
2022-09-22T10:34:59.061Z,100426.38
2022-09-22T10:38:13.627Z,100427.96
2022-09-22T10:41:26.196Z,100432.73
2022-09-22T10:44:39.412Z,100427.77
2022-09-22T10:48:12.434Z,100429.56
2022-09-22T10:51:49.818Z,100435.67
2022-09-22T10:55:09.981Z,100436.18
2022-09-22T10:58:26.548Z,100430.97
2022-09-22T11:02:33.259Z,100424.81
2022-09-22T11:10:31.020Z,100407.20
2022-09-22T11:18:39.701Z,100406.28
2022-09-22T11:22:01.704Z,100411.04
2022-09-22T11:25:18.101Z,100411.80
2022-09-22T11:29:02.077Z,100415.59
2022-09-22T11:32:25.901Z,100418.03
2022-09-22T11:35:48.210Z,100406.23
2022-09-22T11:39:32.148Z,100411.91
2022-09-22T11:42:39.787Z,100411.98
2022-09-22T11:46:33.424Z,100406.37
2022-09-22T11:50:12.205Z,100408.57
2022-09-22T11:53:49.704Z,100412.88
2022-09-22T11:57:10.507Z,100414.62
2022-09-22T12:00:36.189Z,100412.81
2022-09-22T12:03:57.756Z,100405.84
2022-09-22T12:07:04.964Z,100407.56
2022-09-22T12:10:17.502Z,100405.95
2022-09-22T12:13:43.037Z,100408.05
2022-09-22T12:17:21.442Z,100411.66
2022-09-22T12:21:04.096Z,100403.63
2022-09-22T12:24:10.123Z,100407.23
2022-09-22T12:27:36.972Z,100400.52
2022-09-22T12:30:44.926Z,100394.41
2022-09-22T12:33:51.992Z,100397.53
2022-09-22T12:36:59.694Z,100406.29
2022-09-22T12:40:05.398Z,100405.47
2022-09-22T12:43:10.880Z,100407.56
2022-09-22T12:46:22.252Z,100396.89
2022-09-22T12:49:35.638Z,100400.66
2022-09-22T12:53:02.886Z,100399.72
2022-09-22T12:56:17.750Z,100400.80
2022-09-22T13:00:04.377Z,100402.05
2022-09-22T13:05:46.547Z,100399.95
2022-09-22T13:08:53.325Z,100404.46
2022-09-22T13:12:28.483Z,100412.64
2022-09-22T13:18:05.534Z,100410.26
2022-09-22T13:23:41.896Z,100407.80
2022-09-22T13:26:53.693Z,100405.36
2022-09-22T13:30:14.447Z,100404.28
2022-09-22T13:33:37.932Z,100414.69
2022-09-22T13:36:43.189Z,100415.03
2022-09-22T13:39:56.000Z,100415.00
2022-09-22T13:43:01.302Z,100410.61
2022-09-22T13:46:10.159Z,100404.84
2022-09-22T13:51:47.786Z,100416.36
2022-09-22T13:54:52.995Z,100414.90
2022-09-22T14:01:01.449Z,100421.84
2022-09-22T14:03:33.806Z,100429.00
2022-09-22T14:09:09.005Z,100424.50
2022-09-22T14:14:46.331Z,100426.11
2022-09-22T14:20:23.767Z,100429.53
2022-09-22T14:23:42.621Z,100426.86
2022-09-22T14:26:41.280Z,100425.61
2022-09-22T14:29:53.205Z,100420.82
2022-09-22T14:35:50.678Z,100425.09
2022-09-22T14:41:38.112Z,100433.70
2022-09-22T14:45:05.090Z,100420.83
2022-09-22T14:48:31.950Z,100426.78
2022-09-22T14:54:15.533Z,100419.87
2022-09-22T15:00:10.058Z,100417.20
2022-09-22T15:03:15.807Z,100410.06
2022-09-22T15:06:25.354Z,100419.42
2022-09-22T15:12:04.239Z,100409.20
2022-09-22T15:18:16.310Z,100417.58
2022-09-22T15:21:29.384Z,100417.77
2022-09-22T15:24:36.960Z,100413.89
2022-09-22T15:27:45.262Z,100408.02
2022-09-22T15:30:51.756Z,100409.68
2022-09-22T15:36:28.559Z,100423.89
2022-09-22T15:42:08.398Z,100426.78
2022-09-22T15:47:41.662Z,100423.17
2022-09-22T15:50:47.444Z,100426.41
2022-09-22T15:56:35.811Z,100432.77
2022-09-22T15:59:54.546Z,100427.20
2022-09-22T16:02:59.531Z,100432.52
2022-09-22T16:06:09.176Z,100434.70
2022-09-22T16:11:43.259Z,100437.73
2022-09-22T16:17:20.943Z,100436.55
2022-09-22T16:22:58.445Z,100443.84
2022-09-22T16:28:35.514Z,100454.70
2022-09-22T16:34:13.468Z,100456.12
2022-09-22T16:39:48.022Z,100456.75
2022-09-22T16:42:48.099Z,100449.24
2022-09-22T16:48:26.695Z,100455.17
2022-09-22T16:54:03.436Z,100455.09
2022-09-22T16:57:09.594Z,100458.03
2022-09-22T17:02:48.693Z,100461.41
2022-09-22T17:08:27.774Z,100457.58
2022-09-22T17:14:03.541Z,100472.29
2022-09-22T17:17:11.913Z,100471.63
2022-09-22T17:22:47.083Z,100480.13
2022-09-22T17:28:28.243Z,100481.69
2022-09-22T17:34:03.577Z,100478.45
2022-09-22T17:39:42.990Z,100482.16
2022-09-22T17:42:48.378Z,100482.36
2022-09-22T17:51:08.609Z,100494.34
2022-09-22T17:54:30.998Z,100493.52
2022-09-22T17:57:45.468Z,100489.83
2022-09-22T18:00:51.886Z,100485.03
2022-09-22T18:03:37.562Z,100483.66
2022-09-22T18:06:43.835Z,100479.54
2022-09-22T18:09:50.606Z,100485.03
2022-09-22T18:18:01.237Z,100482.91
2022-09-22T18:23:38.226Z,100481.94
2022-09-22T18:26:45.949Z,100484.55
2022-09-22T18:32:21.168Z,100479.26
2022-09-22T18:37:57.976Z,100482.21
2022-09-22T18:41:04.648Z,100485.88
2022-09-22T18:46:40.866Z,100486.62
2022-09-22T18:49:47.499Z,100487.31
2022-09-22T18:55:26.297Z,100481.52
2022-09-22T19:01:07.422Z,100486.70
2022-09-22T19:12:00.291Z,100472.78
2022-09-22T19:17:36.770Z,100480.02
2022-09-22T19:20:44.284Z,100477.46
2022-09-22T19:23:50.978Z,100488.80
2022-09-22T19:29:28.854Z,100488.16
2022-09-22T19:32:34.556Z,100486.98
2022-09-22T19:35:40.963Z,100494.53
2022-09-22T19:38:46.892Z,100484.24
2022-09-22T19:44:24.794Z,100486.98
2022-09-22T19:50:02.041Z,100489.22
2022-09-22T19:53:08.348Z,100490.27
2022-09-22T19:58:43.318Z,100486.34
2022-09-22T20:04:18.797Z,100484.42
2022-09-22T20:07:24.890Z,100478.94
2022-09-22T20:12:59.901Z,100481.55
2022-09-22T20:18:41.248Z,100481.23
2022-09-22T20:24:14.691Z,100482.27
2022-09-22T20:27:22.489Z,100480.91
2022-09-22T20:32:59.193Z,100484.66
2022-09-22T20:38:35.395Z,100486.75
2022-09-22T20:41:41.439Z,100491.19
2022-09-22T20:44:50.484Z,100487.44
2022-09-22T20:52:57.538Z,100485.08
2022-09-22T20:56:18.920Z,100485.94
2022-09-22T20:59:24.970Z,100482.88
2022-09-22T21:02:34.206Z,100486.34
2022-09-22T21:05:43.339Z,100489.23
2022-09-22T21:11:27.316Z,100488.58
2022-09-22T21:14:18.296Z,100481.40
2022-09-22T21:17:06.662Z,100475.92
2022-09-22T21:20:13.923Z,100475.09
2022-09-22T21:23:19.614Z,100472.70
2022-09-22T21:29:00.662Z,100476.82
2022-09-22T21:34:39.334Z,100459.91
2022-09-22T21:37:44.715Z,100464.20
2022-09-22T21:40:51.249Z,100465.38
2022-09-22T21:43:58.122Z,100465.92
2022-09-22T21:47:05.452Z,100468.66
2022-09-22T21:50:11.960Z,100463.54
2022-09-22T21:55:48.177Z,100458.59
2022-09-22T22:01:26.723Z,100463.41
2022-09-22T22:07:02.261Z,100460.87
2022-09-22T22:10:09.935Z,100457.63
2022-09-22T22:15:48.229Z,100459.86
2022-09-22T22:24:00.417Z,100449.95
2022-09-22T22:29:39.995Z,100456.97
2022-09-22T22:32:47.306Z,100448.07
2022-09-22T22:35:23.358Z,100450.30
2022-09-22T22:38:06.685Z,100458.36
2022-09-22T22:41:20.634Z,100457.34
2022-09-22T22:46:55.628Z,100446.56
2022-09-22T22:52:34.889Z,100438.55
2022-09-22T22:58:10.380Z,100442.16
2022-09-22T23:01:25.081Z,100435.48
2022-09-22T23:04:16.692Z,100432.23
2022-09-22T23:09:54.986Z,100435.83
2022-09-22T23:15:31.036Z,100424.55
2022-09-22T23:18:37.579Z,100426.25
2022-09-22T23:24:13.792Z,100414.11
2022-09-22T23:27:19.606Z,100418.05
2022-09-22T23:30:18.873Z,100421.81
2022-09-22T23:33:26.690Z,100418.75
2022-09-22T23:39:02.114Z,100411.25
2022-09-22T23:44:37.322Z,100409.53
2022-09-22T23:47:42.823Z,100408.84
2022-09-22T23:53:17.930Z,100400.47
2022-09-22T23:56:25.066Z,100395.85
